sensor_id;sensor_type;location;lat;lon;timestamp;P1;durP1;ratioP1;P2;durP2;ratioP2
11189;SDS011;5651;50.926;4.718;2022-09-23T00:00:35;14.60;;;8.10;;
11189;SDS011;5651;50.926;4.718;2022-09-23T00:03:02;11.93;;;7.75;;
11189;SDS011;5651;50.926;4.718;2022-09-23T00:05:29;16.40;;;8.70;;
11189;SDS011;5651;50.926;4.718;2022-09-23T00:07:55;12.65;;;6.95;;
11189;SDS011;5651;50.926;4.718;2022-09-23T00:10:22;13.70;;;7.25;;
11189;SDS011;5651;50.926;4.718;2022-09-23T00:12:49;12.35;;;7.50;;
11189;SDS011;5651;50.926;4.718;2022-09-23T00:15:15;11.65;;;7.97;;
11189;SDS011;5651;50.926;4.718;2022-09-23T00:17:42;11.80;;;7.50;;
11189;SDS011;5651;50.926;4.718;2022-09-23T00:20:08;13.15;;;7.43;;
11189;SDS011;5651;50.926;4.718;2022-09-23T00:22:35;10.13;;;6.97;;
11189;SDS011;5651;50.926;4.718;2022-09-23T00:25:02;12.25;;;6.72;;
11189;SDS011;5651;50.926;4.718;2022-09-23T00:27:28;9.45;;;6.88;;
11189;SDS011;5651;50.926;4.718;2022-09-23T00:29:55;11.27;;;7.13;;
11189;SDS011;5651;50.926;4.718;2022-09-23T00:32:21;13.82;;;7.60;;
11189;SDS011;5651;50.926;4.718;2022-09-23T00:34:47;15.07;;;8.27;;
11189;SDS011;5651;50.926;4.718;2022-09-23T00:37:13;14.43;;;7.95;;
11189;SDS011;5651;50.926;4.718;2022-09-23T00:39:39;14.88;;;7.78;;
11189;SDS011;5651;50.926;4.718;2022-09-23T00:42:05;13.15;;;7.45;;
11189;SDS011;5651;50.926;4.718;2022-09-23T00:44:51;13.15;;;7.97;;
11189;SDS011;5651;50.926;4.718;2022-09-23T00:47:33;12.90;;;7.68;;
11189;SDS011;5651;50.926;4.718;2022-09-23T00:50:05;12.90;;;7.38;;
11189;SDS011;5651;50.926;4.718;2022-09-23T00:52:52;12.48;;;7.68;;
11189;SDS011;5651;50.926;4.718;2022-09-23T00:58:20;11.95;;;7.30;;
11189;SDS011;5651;50.926;4.718;2022-09-23T01:00:51;14.05;;;7.82;;
11189;SDS011;5651;50.926;4.718;2022-09-23T01:03:17;11.98;;;7.25;;
11189;SDS011;5651;50.926;4.718;2022-09-23T01:05:44;10.95;;;6.88;;
11189;SDS011;5651;50.926;4.718;2022-09-23T01:08:11;11.95;;;7.78;;
11189;SDS011;5651;50.926;4.718;2022-09-23T01:13:26;11.07;;;6.88;;
11189;SDS011;5651;50.926;4.718;2022-09-23T01:18:58;12.43;;;7.65;;
11189;SDS011;5651;50.926;4.718;2022-09-23T01:22:11;13.95;;;7.72;;
11189;SDS011;5651;50.926;4.718;2022-09-23T01:27:50;13.32;;;8.93;;
11189;SDS011;5651;50.926;4.718;2022-09-23T01:44:10;17.67;;;9.07;;
11189;SDS011;5651;50.926;4.718;2022-09-23T01:46:54;13.10;;;8.88;;
11189;SDS011;5651;50.926;4.718;2022-09-23T01:49:28;16.17;;;9.10;;
11189;SDS011;5651;50.926;4.718;2022-09-23T01:52:15;12.95;;;8.50;;
11189;SDS011;5651;50.926;4.718;2022-09-23T01:54:50;13.18;;;8.68;;
11189;SDS011;5651;50.926;4.718;2022-09-23T01:57:32;12.48;;;8.38;;
11189;SDS011;5651;50.926;4.718;2022-09-23T02:00:20;13.90;;;8.57;;
11189;SDS011;5651;50.926;4.718;2022-09-23T02:02:49;14.70;;;8.93;;
11189;SDS011;5651;50.926;4.718;2022-09-23T02:05:26;14.10;;;8.40;;
11189;SDS011;5651;50.926;4.718;2022-09-23T02:10:41;14.65;;;8.00;;
11189;SDS011;5651;50.926;4.718;2022-09-23T02:15:59;13.50;;;8.48;;
11189;SDS011;5651;50.926;4.718;2022-09-23T02:18:32;12.70;;;8.18;;
11189;SDS011;5651;50.926;4.718;2022-09-23T02:21:04;13.05;;;8.15;;
11189;SDS011;5651;50.926;4.718;2022-09-23T02:23:34;11.50;;;7.40;;
11189;SDS011;5651;50.926;4.718;2022-09-23T02:26:22;12.65;;;8.38;;
11189;SDS011;5651;50.926;4.718;2022-09-23T02:31:41;15.52;;;8.43;;
11189;SDS011;5651;50.926;4.718;2022-09-23T02:40:16;14.50;;;9.13;;
11189;SDS011;5651;50.926;4.718;2022-09-23T02:45:44;14.27;;;9.40;;
11189;SDS011;5651;50.926;4.718;2022-09-23T02:48:12;16.77;;;9.57;;
11189;SDS011;5651;50.926;4.718;2022-09-23T02:50:42;16.95;;;9.27;;
11189;SDS011;5651;50.926;4.718;2022-09-23T02:53:10;17.52;;;10.40;;
11189;SDS011;5651;50.926;4.718;2022-09-23T02:55:35;12.90;;;8.43;;
11189;SDS011;5651;50.926;4.718;2022-09-23T02:58:02;14.48;;;9.40;;
11189;SDS011;5651;50.926;4.718;2022-09-23T03:00:46;13.55;;;9.18;;
11189;SDS011;5651;50.926;4.718;2022-09-23T03:06:00;11.63;;;8.50;;
11189;SDS011;5651;50.926;4.718;2022-09-23T03:08:49;14.05;;;8.40;;
11189;SDS011;5651;50.926;4.718;2022-09-23T03:11:20;12.32;;;8.45;;
11189;SDS011;5651;50.926;4.718;2022-09-23T03:17:07;10.50;;;7.68;;
11189;SDS011;5651;50.926;4.718;2022-09-23T03:22:31;13.27;;;8.15;;
11189;SDS011;5651;50.926;4.718;2022-09-23T03:25:08;12.35;;;8.65;;
11189;SDS011;5651;50.926;4.718;2022-09-23T03:27:40;13.88;;;8.55;;
11189;SDS011;5651;50.926;4.718;2022-09-23T03:30:10;12.15;;;7.80;;
11189;SDS011;5651;50.926;4.718;2022-09-23T03:32:37;13.45;;;8.30;;
11189;SDS011;5651;50.926;4.718;2022-09-23T03:35:07;13.25;;;9.35;;
11189;SDS011;5651;50.926;4.718;2022-09-23T03:37:46;12.70;;;8.00;;
11189;SDS011;5651;50.926;4.718;2022-09-23T03:40:27;14.85;;;8.48;;
11189;SDS011;5651;50.926;4.718;2022-09-23T03:42:56;13.32;;;8.80;;
11189;SDS011;5651;50.926;4.718;2022-09-23T03:45:27;15.13;;;7.65;;
11189;SDS011;5651;50.926;4.718;2022-09-23T03:47:56;15.77;;;8.73;;
11189;SDS011;5651;50.926;4.718;2022-09-23T03:50:22;15.57;;;7.97;;
11189;SDS011;5651;50.926;4.718;2022-09-23T03:52:48;15.95;;;9.07;;
11189;SDS011;5651;50.926;4.718;2022-09-23T03:55:15;14.02;;;8.65;;
11189;SDS011;5651;50.926;4.718;2022-09-23T03:57:41;16.73;;;8.63;;
11189;SDS011;5651;50.926;4.718;2022-09-23T04:00:09;16.05;;;8.63;;
11189;SDS011;5651;50.926;4.718;2022-09-23T04:02:36;14.55;;;8.07;;
11189;SDS011;5651;50.926;4.718;2022-09-23T04:05:02;11.50;;;7.68;;
11189;SDS011;5651;50.926;4.718;2022-09-23T04:07:28;13.10;;;8.60;;
11189;SDS011;5651;50.926;4.718;2022-09-23T04:09:54;12.52;;;9.10;;
11189;SDS011;5651;50.926;4.718;2022-09-23T04:12:20;15.88;;;8.23;;
11189;SDS011;5651;50.926;4.718;2022-09-23T04:14:46;18.30;;;8.23;;
11189;SDS011;5651;50.926;4.718;2022-09-23T04:17:12;12.45;;;8.30;;
11189;SDS011;5651;50.926;4.718;2022-09-23T04:19:38;12.18;;;8.18;;
11189;SDS011;5651;50.926;4.718;2022-09-23T04:22:05;14.05;;;8.52;;
11189;SDS011;5651;50.926;4.718;2022-09-23T04:24:31;16.90;;;8.50;;
11189;SDS011;5651;50.926;4.718;2022-09-23T04:26:57;14.32;;;8.13;;
11189;SDS011;5651;50.926;4.718;2022-09-23T04:29:24;12.32;;;8.35;;
11189;SDS011;5651;50.926;4.718;2022-09-23T04:31:51;13.13;;;8.18;;
11189;SDS011;5651;50.926;4.718;2022-09-23T04:34:17;16.30;;;9.02;;
11189;SDS011;5651;50.926;4.718;2022-09-23T04:36:44;15.07;;;8.63;;
11189;SDS011;5651;50.926;4.718;2022-09-23T04:39:12;12.70;;;8.77;;
11189;SDS011;5651;50.926;4.718;2022-09-23T04:41:40;17.30;;;8.05;;
11189;SDS011;5651;50.926;4.718;2022-09-23T04:44:06;13.10;;;8.35;;
11189;SDS011;5651;50.926;4.718;2022-09-23T04:46:32;12.95;;;8.68;;
11189;SDS011;5651;50.926;4.718;2022-09-23T04:48:58;13.57;;;8.05;;
11189;SDS011;5651;50.926;4.718;2022-09-23T04:51:25;11.98;;;8.45;;
11189;SDS011;5651;50.926;4.718;2022-09-23T04:53:52;12.48;;;8.27;;
11189;SDS011;5651;50.926;4.718;2022-09-23T04:56:22;12.18;;;8.60;;
11189;SDS011;5651;50.926;4.718;2022-09-23T04:58:50;12.13;;;8.80;;
11189;SDS011;5651;50.926;4.718;2022-09-23T05:01:18;13.25;;;8.13;;
11189;SDS011;5651;50.926;4.718;2022-09-23T05:03:49;12.63;;;8.40;;
11189;SDS011;5651;50.926;4.718;2022-09-23T05:06:16;13.48;;;8.05;;
11189;SDS011;5651;50.926;4.718;2022-09-23T05:08:46;13.90;;;8.25;;
11189;SDS011;5651;50.926;4.718;2022-09-23T05:11:13;12.98;;;8.15;;
11189;SDS011;5651;50.926;4.718;2022-09-23T05:13:40;12.05;;;7.95;;
11189;SDS011;5651;50.926;4.718;2022-09-23T05:16:06;14.80;;;7.25;;
11189;SDS011;5651;50.926;4.718;2022-09-23T05:18:36;13.13;;;8.02;;
11189;SDS011;5651;50.926;4.718;2022-09-23T05:21:08;13.63;;;7.63;;
11189;SDS011;5651;50.926;4.718;2022-09-23T05:23:36;13.13;;;8.50;;
11189;SDS011;5651;50.926;4.718;2022-09-23T05:26:06;13.18;;;8.00;;
11189;SDS011;5651;50.926;4.718;2022-09-23T05:28:34;12.73;;;7.88;;
11189;SDS011;5651;50.926;4.718;2022-09-23T05:31:05;14.80;;;8.45;;
11189;SDS011;5651;50.926;4.718;2022-09-23T05:33:34;12.52;;;7.95;;
11189;SDS011;5651;50.926;4.718;2022-09-23T05:36:01;15.90;;;8.63;;
11189;SDS011;5651;50.926;4.718;2022-09-23T05:38:28;13.95;;;7.97;;
11189;SDS011;5651;50.926;4.718;2022-09-23T05:40:55;13.07;;;8.57;;
11189;SDS011;5651;50.926;4.718;2022-09-23T05:43:21;17.20;;;8.45;;
11189;SDS011;5651;50.926;4.718;2022-09-23T05:45:48;19.30;;;9.23;;
11189;SDS011;5651;50.926;4.718;2022-09-23T05:48:13;13.02;;;8.18;;
11189;SDS011;5651;50.926;4.718;2022-09-23T05:50:47;14.48;;;8.45;;
11189;SDS011;5651;50.926;4.718;2022-09-23T05:53:14;18.08;;;8.07;;
11189;SDS011;5651;50.926;4.718;2022-09-23T05:55:39;16.60;;;8.30;;
11189;SDS011;5651;50.926;4.718;2022-09-23T05:58:05;13.95;;;8.27;;
11189;SDS011;5651;50.926;4.718;2022-09-23T06:00:31;13.15;;;8.07;;
11189;SDS011;5651;50.926;4.718;2022-09-23T06:02:56;13.75;;;8.80;;
11189;SDS011;5651;50.926;4.718;2022-09-23T06:05:22;12.43;;;7.95;;
11189;SDS011;5651;50.926;4.718;2022-09-23T06:07:48;17.70;;;8.68;;
11189;SDS011;5651;50.926;4.718;2022-09-23T06:10:13;15.80;;;8.50;;
11189;SDS011;5651;50.926;4.718;2022-09-23T06:12:39;18.40;;;8.98;;
11189;SDS011;5651;50.926;4.718;2022-09-23T06:15:06;14.75;;;7.97;;
11189;SDS011;5651;50.926;4.718;2022-09-23T06:17:33;13.20;;;7.90;;
11189;SDS011;5651;50.926;4.718;2022-09-23T06:19:59;13.60;;;7.65;;
11189;SDS011;5651;50.926;4.718;2022-09-23T06:22:24;15.38;;;8.13;;
11189;SDS011;5651;50.926;4.718;2022-09-23T06:24:50;15.82;;;8.18;;
11189;SDS011;5651;50.926;4.718;2022-09-23T06:27:16;13.88;;;8.32;;
11189;SDS011;5651;50.926;4.718;2022-09-23T06:29:41;13.73;;;7.88;;
11189;SDS011;5651;50.926;4.718;2022-09-23T06:32:08;16.02;;;8.13;;
11189;SDS011;5651;50.926;4.718;2022-09-23T06:34:33;11.38;;;7.35;;
11189;SDS011;5651;50.926;4.718;2022-09-23T06:36:59;18.75;;;8.55;;
11189;SDS011;5651;50.926;4.718;2022-09-23T06:39:25;12.65;;;8.13;;
11189;SDS011;5651;50.926;4.718;2022-09-23T06:41:51;12.05;;;8.13;;
11189;SDS011;5651;50.926;4.718;2022-09-23T06:44:17;14.27;;;8.15;;
11189;SDS011;5651;50.926;4.718;2022-09-23T06:46:42;13.02;;;8.25;;
11189;SDS011;5651;50.926;4.718;2022-09-23T06:49:08;11.88;;;7.93;;
11189;SDS011;5651;50.926;4.718;2022-09-23T06:51:34;15.10;;;8.75;;
11189;SDS011;5651;50.926;4.718;2022-09-23T06:54:01;14.48;;;7.97;;
11189;SDS011;5651;50.926;4.718;2022-09-23T06:56:26;14.52;;;7.82;;
11189;SDS011;5651;50.926;4.718;2022-09-23T06:58:52;17.00;;;7.40;;
11189;SDS011;5651;50.926;4.718;2022-09-23T07:01:19;13.55;;;8.70;;
11189;SDS011;5651;50.926;4.718;2022-09-23T07:03:45;15.27;;;7.53;;
11189;SDS011;5651;50.926;4.718;2022-09-23T07:06:14;11.90;;;7.20;;
11189;SDS011;5651;50.926;4.718;2022-09-23T07:08:44;13.25;;;7.15;;
11189;SDS011;5651;50.926;4.718;2022-09-23T07:11:11;14.63;;;7.68;;
11189;SDS011;5651;50.926;4.718;2022-09-23T07:13:38;14.23;;;7.57;;
11189;SDS011;5651;50.926;4.718;2022-09-23T07:16:05;13.52;;;7.43;;
11189;SDS011;5651;50.926;4.718;2022-09-23T07:18:32;12.75;;;7.13;;
11189;SDS011;5651;50.926;4.718;2022-09-23T07:21:05;13.52;;;6.72;;
11189;SDS011;5651;50.926;4.718;2022-09-23T07:23:33;14.52;;;7.30;;
11189;SDS011;5651;50.926;4.718;2022-09-23T07:25:59;18.02;;;9.35;;
11189;SDS011;5651;50.926;4.718;2022-09-23T07:28:25;18.90;;;8.52;;
11189;SDS011;5651;50.926;4.718;2022-09-23T07:30:53;13.38;;;7.47;;
11189;SDS011;5651;50.926;4.718;2022-09-23T07:33:20;14.35;;;7.95;;
11189;SDS011;5651;50.926;4.718;2022-09-23T07:35:46;20.15;;;8.23;;
11189;SDS011;5651;50.926;4.718;2022-09-23T07:38:11;19.88;;;7.70;;
11189;SDS011;5651;50.926;4.718;2022-09-23T07:40:37;14.45;;;7.30;;
11189;SDS011;5651;50.926;4.718;2022-09-23T07:43:04;15.00;;;7.22;;
11189;SDS011;5651;50.926;4.718;2022-09-23T07:45:34;16.35;;;8.05;;
11189;SDS011;5651;50.926;4.718;2022-09-23T07:48:03;17.85;;;7.80;;
11189;SDS011;5651;50.926;4.718;2022-09-23T07:50:29;15.15;;;7.20;;
11189;SDS011;5651;50.926;4.718;2022-09-23T07:52:57;18.88;;;7.75;;
11189;SDS011;5651;50.926;4.718;2022-09-23T07:55:23;15.85;;;7.10;;
11189;SDS011;5651;50.926;4.718;2022-09-23T07:57:49;18.27;;;7.63;;
11189;SDS011;5651;50.926;4.718;2022-09-23T08:00:14;15.88;;;7.22;;
11189;SDS011;5651;50.926;4.718;2022-09-23T08:02:40;16.33;;;7.22;;
11189;SDS011;5651;50.926;4.718;2022-09-23T08:05:06;12.55;;;6.72;;
11189;SDS011;5651;50.926;4.718;2022-09-23T08:07:33;13.52;;;6.28;;
11189;SDS011;5651;50.926;4.718;2022-09-23T08:09:59;16.27;;;7.25;;
11189;SDS011;5651;50.926;4.718;2022-09-23T08:12:26;14.20;;;6.63;;
11189;SDS011;5651;50.926;4.718;2022-09-23T08:14:54;15.02;;;6.00;;
11189;SDS011;5651;50.926;4.718;2022-09-23T08:17:20;14.93;;;5.75;;
11189;SDS011;5651;50.926;4.718;2022-09-23T08:19:46;14.23;;;6.00;;
11189;SDS011;5651;50.926;4.718;2022-09-23T08:22:11;14.52;;;6.70;;
11189;SDS011;5651;50.926;4.718;2022-09-23T08:24:37;15.48;;;6.68;;
11189;SDS011;5651;50.926;4.718;2022-09-23T08:27:03;12.43;;;6.35;;
11189;SDS011;5651;50.926;4.718;2022-09-23T08:29:28;12.85;;;6.90;;
11189;SDS011;5651;50.926;4.718;2022-09-23T08:31:54;12.93;;;6.38;;
11189;SDS011;5651;50.926;4.718;2022-09-23T08:34:20;12.85;;;5.72;;
11189;SDS011;5651;50.926;4.718;2022-09-23T08:36:47;16.02;;;7.10;;
11189;SDS011;5651;50.926;4.718;2022-09-23T08:39:13;13.77;;;6.18;;
11189;SDS011;5651;50.926;4.718;2022-09-23T08:44:20;14.65;;;6.15;;
11189;SDS011;5651;50.926;4.718;2022-09-23T08:46:51;11.17;;;5.40;;
11189;SDS011;5651;50.926;4.718;2022-09-23T08:49:35;10.45;;;5.43;;
11189;SDS011;5651;50.926;4.718;2022-09-23T08:52:08;13.25;;;5.70;;
11189;SDS011;5651;50.926;4.718;2022-09-23T08:54:42;11.82;;;5.80;;
11189;SDS011;5651;50.926;4.718;2022-09-23T08:57:08;16.92;;;8.38;;
11189;SDS011;5651;50.926;4.718;2022-09-23T08:59:47;17.83;;;6.78;;
11189;SDS011;5651;50.926;4.718;2022-09-23T09:02:20;15.90;;;6.75;;
11189;SDS011;5651;50.926;4.718;2022-09-23T09:07:17;14.43;;;5.60;;
11189;SDS011;5651;50.926;4.718;2022-09-23T09:12:42;11.40;;;5.50;;
11189;SDS011;5651;50.926;4.718;2022-09-23T09:17:47;14.18;;;6.28;;
11189;SDS011;5651;50.926;4.718;2022-09-23T09:25:48;15.60;;;5.20;;
11189;SDS011;5651;50.926;4.718;2022-09-23T09:30:44;11.48;;;5.95;;
11189;SDS011;5651;50.926;4.718;2022-09-23T09:33:13;8.40;;;4.88;;
11189;SDS011;5651;50.926;4.718;2022-09-23T09:38:35;13.05;;;6.32;;
11189;SDS011;5651;50.926;4.718;2022-09-23T09:41:08;13.18;;;5.63;;
11189;SDS011;5651;50.926;4.718;2022-09-23T09:43:40;12.02;;;6.10;;
11189;SDS011;5651;50.926;4.718;2022-09-23T09:46:21;13.48;;;5.90;;
11189;SDS011;5651;50.926;4.718;2022-09-23T09:48:53;18.40;;;6.40;;
11189;SDS011;5651;50.926;4.718;2022-09-23T09:51:24;15.15;;;6.22;;
11189;SDS011;5651;50.926;4.718;2022-09-23T09:53:52;11.77;;;5.57;;
11189;SDS011;5651;50.926;4.718;2022-09-23T09:56:21;13.15;;;6.40;;
11189;SDS011;5651;50.926;4.718;2022-09-23T09:59:38;14.93;;;6.38;;
11189;SDS011;5651;50.926;4.718;2022-09-23T10:01:54;14.55;;;6.35;;
11189;SDS011;5651;50.926;4.718;2022-09-23T10:04:52;15.77;;;5.80;;
11189;SDS011;5651;50.926;4.718;2022-09-23T10:07:23;14.30;;;5.85;;
11189;SDS011;5651;50.926;4.718;2022-09-23T10:09:51;12.07;;;5.65;;
11189;SDS011;5651;50.926;4.718;2022-09-23T10:12:18;13.68;;;5.97;;
11189;SDS011;5651;50.926;4.718;2022-09-23T10:14:46;22.75;;;7.38;;
11189;SDS011;5651;50.926;4.718;2022-09-23T10:17:27;13.25;;;5.55;;
11189;SDS011;5651;50.926;4.718;2022-09-23T10:19:57;14.90;;;6.10;;
11189;SDS011;5651;50.926;4.718;2022-09-23T10:22:37;17.58;;;6.53;;
11189;SDS011;5651;50.926;4.718;2022-09-23T10:25:07;13.25;;;6.10;;
11189;SDS011;5651;50.926;4.718;2022-09-23T10:27:40;14.25;;;6.43;;
11189;SDS011;5651;50.926;4.718;2022-09-23T10:30:19;12.68;;;6.40;;
11189;SDS011;5651;50.926;4.718;2022-09-23T10:32:47;14.35;;;6.47;;
11189;SDS011;5651;50.926;4.718;2022-09-23T10:49:12;11.57;;;5.00;;
11189;SDS011;5651;50.926;4.718;2022-09-23T10:52:10;9.77;;;4.28;;
11189;SDS011;5651;50.926;4.718;2022-09-23T10:57:19;11.70;;;4.90;;
11189;SDS011;5651;50.926;4.718;2022-09-23T11:02:43;10.23;;;5.00;;
11189;SDS011;5651;50.926;4.718;2022-09-23T11:07:59;7.55;;;3.70;;
11189;SDS011;5651;50.926;4.718;2022-09-23T11:13:30;10.40;;;4.55;;
11189;SDS011;5651;50.926;4.718;2022-09-23T11:24:05;9.90;;;4.05;;
11189;SDS011;5651;50.926;4.718;2022-09-23T11:26:55;10.88;;;4.70;;
11189;SDS011;5651;50.926;4.718;2022-09-23T11:29:59;9.07;;;4.27;;
11189;SDS011;5651;50.926;4.718;2022-09-23T11:33:02;8.40;;;4.53;;
11189;SDS011;5651;50.926;4.718;2022-09-23T11:35:44;6.90;;;3.85;;
11189;SDS011;5651;50.926;4.718;2022-09-23T11:38:22;11.27;;;4.30;;
11189;SDS011;5651;50.926;4.718;2022-09-23T11:40:54;10.68;;;4.53;;
11189;SDS011;5651;50.926;4.718;2022-09-23T11:43:29;10.85;;;4.72;;
11189;SDS011;5651;50.926;4.718;2022-09-23T11:46:05;8.88;;;4.25;;
11189;SDS011;5651;50.926;4.718;2022-09-23T11:48:38;10.15;;;4.90;;
11189;SDS011;5651;50.926;4.718;2022-09-23T11:51:16;8.02;;;3.83;;
11189;SDS011;5651;50.926;4.718;2022-09-23T11:56:49;7.82;;;3.60;;
11189;SDS011;5651;50.926;4.718;2022-09-23T12:01:59;11.23;;;4.20;;
11189;SDS011;5651;50.926;4.718;2022-09-23T12:04:32;11.52;;;3.88;;
11189;SDS011;5651;50.926;4.718;2022-09-23T12:07:07;8.18;;;3.67;;
11189;SDS011;5651;50.926;4.718;2022-09-23T12:18:10;13.20;;;5.18;;
11189;SDS011;5651;50.926;4.718;2022-09-23T12:20:47;10.85;;;5.55;;
11189;SDS011;5651;50.926;4.718;2022-09-23T12:23:37;9.10;;;4.95;;
11189;SDS011;5651;50.926;4.718;2022-09-23T12:26:17;10.18;;;4.00;;
11189;SDS011;5651;50.926;4.718;2022-09-23T12:28:47;10.20;;;4.45;;
11189;SDS011;5651;50.926;4.718;2022-09-23T12:31:17;12.18;;;6.70;;
11189;SDS011;5651;50.926;4.718;2022-09-23T12:33:51;11.85;;;5.30;;
11189;SDS011;5651;50.926;4.718;2022-09-23T12:36:31;8.32;;;4.63;;
11189;SDS011;5651;50.926;4.718;2022-09-23T12:39:04;10.18;;;5.47;;
11189;SDS011;5651;50.926;4.718;2022-09-23T12:41:42;10.20;;;5.90;;
11189;SDS011;5651;50.926;4.718;2022-09-23T12:44:14;8.85;;;4.60;;
11189;SDS011;5651;50.926;4.718;2022-09-23T12:49:49;11.38;;;6.50;;
11189;SDS011;5651;50.926;4.718;2022-09-23T12:54:46;9.18;;;5.13;;
11189;SDS011;5651;50.926;4.718;2022-09-23T13:02:37;12.27;;;5.03;;
11189;SDS011;5651;50.926;4.718;2022-09-23T13:07:51;12.48;;;5.22;;
11189;SDS011;5651;50.926;4.718;2022-09-23T13:11:12;8.85;;;4.88;;
11189;SDS011;5651;50.926;4.718;2022-09-23T13:15:51;10.93;;;5.18;;
11189;SDS011;5651;50.926;4.718;2022-09-23T13:20:45;10.60;;;5.15;;
11189;SDS011;5651;50.926;4.718;2022-09-23T13:23:28;12.05;;;5.60;;
11189;SDS011;5651;50.926;4.718;2022-09-23T13:25:56;10.20;;;4.72;;
11189;SDS011;5651;50.926;4.718;2022-09-23T13:28:34;12.75;;;5.45;;
11189;SDS011;5651;50.926;4.718;2022-09-23T13:31:10;10.73;;;4.93;;
11189;SDS011;5651;50.926;4.718;2022-09-23T13:33:44;14.25;;;5.25;;
11189;SDS011;5651;50.926;4.718;2022-09-23T13:36:14;8.77;;;5.32;;
11189;SDS011;5651;50.926;4.718;2022-09-23T13:38:41;12.00;;;5.28;;
11189;SDS011;5651;50.926;4.718;2022-09-23T13:46:40;13.48;;;5.60;;
11189;SDS011;5651;50.926;4.718;2022-09-23T13:49:23;10.40;;;5.57;;
11189;SDS011;5651;50.926;4.718;2022-09-23T13:51:55;11.10;;;5.70;;
11189;SDS011;5651;50.926;4.718;2022-09-23T13:54:31;7.95;;;4.82;;
11189;SDS011;5651;50.926;4.718;2022-09-23T13:57:02;9.82;;;4.30;;
11189;SDS011;5651;50.926;4.718;2022-09-23T13:59:29;10.55;;;5.07;;
11189;SDS011;5651;50.926;4.718;2022-09-23T14:04:31;10.73;;;4.78;;
11189;SDS011;5651;50.926;4.718;2022-09-23T14:06:57;13.68;;;6.22;;
11189;SDS011;5651;50.926;4.718;2022-09-23T14:09:23;10.27;;;4.95;;
11189;SDS011;5651;50.926;4.718;2022-09-23T14:11:51;14.43;;;5.07;;
11189;SDS011;5651;50.926;4.718;2022-09-23T14:14:20;11.20;;;5.53;;
11189;SDS011;5651;50.926;4.718;2022-09-23T14:16:47;8.80;;;4.72;;
11189;SDS011;5651;50.926;4.718;2022-09-23T14:19:15;14.02;;;5.57;;
11189;SDS011;5651;50.926;4.718;2022-09-23T14:21:46;12.23;;;4.78;;
11189;SDS011;5651;50.926;4.718;2022-09-23T14:26:40;10.73;;;5.28;;
11189;SDS011;5651;50.926;4.718;2022-09-23T14:29:50;11.73;;;4.80;;
11189;SDS011;5651;50.926;4.718;2022-09-23T14:32:01;9.68;;;5.20;;
11189;SDS011;5651;50.926;4.718;2022-09-23T14:35:04;16.02;;;6.22;;
11189;SDS011;5651;50.926;4.718;2022-09-23T14:45:23;11.63;;;5.95;;
11189;SDS011;5651;50.926;4.718;2022-09-23T14:47:52;12.02;;;5.80;;
11189;SDS011;5651;50.926;4.718;2022-09-23T14:50:24;13.60;;;5.83;;
11189;SDS011;5651;50.926;4.718;2022-09-23T14:55:43;13.90;;;5.50;;
11189;SDS011;5651;50.926;4.718;2022-09-23T14:58:14;8.65;;;4.53;;
11189;SDS011;5651;50.926;4.718;2022-09-23T15:00:54;12.93;;;6.40;;
11189;SDS011;5651;50.926;4.718;2022-09-23T15:03:21;12.90;;;5.47;;
11189;SDS011;5651;50.926;4.718;2022-09-23T15:05:47;14.93;;;7.40;;
11189;SDS011;5651;50.926;4.718;2022-09-23T15:08:20;12.93;;;6.07;;
11189;SDS011;5651;50.926;4.718;2022-09-23T15:10:47;20.88;;;5.53;;
11189;SDS011;5651;50.926;4.718;2022-09-23T15:13:20;16.48;;;5.45;;
11189;SDS011;5651;50.926;4.718;2022-09-23T15:15:51;13.05;;;6.13;;
11189;SDS011;5651;50.926;4.718;2022-09-23T15:18:36;12.63;;;5.65;;
11189;SDS011;5651;50.926;4.718;2022-09-23T15:21:12;16.88;;;5.95;;
11189;SDS011;5651;50.926;4.718;2022-09-23T15:28:41;8.13;;;4.60;;
11189;SDS011;5651;50.926;4.718;2022-09-23T15:31:17;14.25;;;6.20;;
11189;SDS011;5651;50.926;4.718;2022-09-23T15:33:45;13.63;;;5.00;;
11189;SDS011;5651;50.926;4.718;2022-09-23T15:36:16;9.93;;;5.10;;
11189;SDS011;5651;50.926;4.718;2022-09-23T15:38:44;10.25;;;5.20;;
11189;SDS011;5651;50.926;4.718;2022-09-23T15:41:10;10.18;;;7.47;;
11189;SDS011;5651;50.926;4.718;2022-09-23T15:43:38;11.07;;;5.00;;
11189;SDS011;5651;50.926;4.718;2022-09-23T15:46:06;10.40;;;5.53;;
11189;SDS011;5651;50.926;4.718;2022-09-23T15:48:53;9.88;;;4.72;;
11189;SDS011;5651;50.926;4.718;2022-09-23T15:51:32;11.90;;;4.55;;
11189;SDS011;5651;50.926;4.718;2022-09-23T15:53:59;12.35;;;6.25;;
11189;SDS011;5651;50.926;4.718;2022-09-23T15:56:25;12.75;;;5.38;;
11189;SDS011;5651;50.926;4.718;2022-09-23T15:58:51;11.25;;;5.20;;
11189;SDS011;5651;50.926;4.718;2022-09-23T16:01:29;9.98;;;4.60;;
11189;SDS011;5651;50.926;4.718;2022-09-23T16:03:57;17.50;;;5.20;;
11189;SDS011;5651;50.926;4.718;2022-09-23T16:06:26;10.82;;;5.70;;
11189;SDS011;5651;50.926;4.718;2022-09-23T16:08:52;10.63;;;5.63;;
11189;SDS011;5651;50.926;4.718;2022-09-23T16:11:28;12.68;;;5.57;;
11189;SDS011;5651;50.926;4.718;2022-09-23T16:13:58;12.00;;;5.88;;
11189;SDS011;5651;50.926;4.718;2022-09-23T16:16:25;15.52;;;6.32;;
11189;SDS011;5651;50.926;4.718;2022-09-23T16:18:52;11.65;;;5.32;;
11189;SDS011;5651;50.926;4.718;2022-09-23T16:21:24;11.32;;;6.10;;
11189;SDS011;5651;50.926;4.718;2022-09-23T16:23:52;11.75;;;6.28;;
11189;SDS011;5651;50.926;4.718;2022-09-23T16:26:20;10.90;;;5.97;;
11189;SDS011;5651;50.926;4.718;2022-09-23T16:28:57;10.10;;;5.28;;
11189;SDS011;5651;50.926;4.718;2022-09-23T16:31:24;13.00;;;5.47;;
11189;SDS011;5651;50.926;4.718;2022-09-23T16:33:51;11.60;;;5.65;;
11189;SDS011;5651;50.926;4.718;2022-09-23T16:36:21;8.60;;;5.45;;
11189;SDS011;5651;50.926;4.718;2022-09-23T16:38:50;12.98;;;5.43;;
11189;SDS011;5651;50.926;4.718;2022-09-23T16:41:15;11.05;;;5.03;;
11189;SDS011;5651;50.926;4.718;2022-09-23T16:43:41;12.70;;;5.30;;
11189;SDS011;5651;50.926;4.718;2022-09-23T16:46:07;10.88;;;5.50;;
11189;SDS011;5651;50.926;4.718;2022-09-23T16:48:36;12.57;;;7.53;;
11189;SDS011;5651;50.926;4.718;2022-09-23T16:51:05;12.82;;;9.63;;
11189;SDS011;5651;50.926;4.718;2022-09-23T16:53:32;9.98;;;6.85;;
11189;SDS011;5651;50.926;4.718;2022-09-23T16:56:05;14.35;;;6.85;;
11189;SDS011;5651;50.926;4.718;2022-09-23T16:58:37;12.23;;;6.93;;
11189;SDS011;5651;50.926;4.718;2022-09-23T17:01:04;11.48;;;6.38;;
11189;SDS011;5651;50.926;4.718;2022-09-23T17:03:49;12.80;;;6.25;;
11189;SDS011;5651;50.926;4.718;2022-09-23T17:06:15;10.65;;;5.30;;
11189;SDS011;5651;50.926;4.718;2022-09-23T17:08:44;10.50;;;6.40;;
11189;SDS011;5651;50.926;4.718;2022-09-23T17:11:12;14.13;;;6.50;;
11189;SDS011;5651;50.926;4.718;2022-09-23T17:13:38;12.13;;;5.93;;
11189;SDS011;5651;50.926;4.718;2022-09-23T17:16:06;15.45;;;7.55;;
11189;SDS011;5651;50.926;4.718;2022-09-23T17:18:31;15.48;;;8.10;;
11189;SDS011;5651;50.926;4.718;2022-09-23T17:21:01;13.30;;;7.68;;
11189;SDS011;5651;50.926;4.718;2022-09-23T17:23:29;13.40;;;7.65;;
11189;SDS011;5651;50.926;4.718;2022-09-23T17:25:57;14.68;;;7.05;;
11189;SDS011;5651;50.926;4.718;2022-09-23T17:28:23;10.63;;;6.40;;
11189;SDS011;5651;50.926;4.718;2022-09-23T17:30:59;11.15;;;7.05;;
11189;SDS011;5651;50.926;4.718;2022-09-23T17:33:28;12.32;;;7.03;;
11189;SDS011;5651;50.926;4.718;2022-09-23T17:35:55;15.35;;;8.18;;
11189;SDS011;5651;50.926;4.718;2022-09-23T17:38:21;9.77;;;6.38;;
11189;SDS011;5651;50.926;4.718;2022-09-23T17:40:52;13.90;;;7.63;;
11189;SDS011;5651;50.926;4.718;2022-09-23T17:43:20;12.13;;;7.43;;
11189;SDS011;5651;50.926;4.718;2022-09-23T17:45:54;10.32;;;6.90;;
11189;SDS011;5651;50.926;4.718;2022-09-23T17:48:22;13.18;;;7.28;;
11189;SDS011;5651;50.926;4.718;2022-09-23T17:50:59;10.80;;;7.05;;
11189;SDS011;5651;50.926;4.718;2022-09-23T17:53:31;10.10;;;6.75;;